Time;durP1;ratioP1;P1;durP2;ratioP2;P2;SDS_P1;SDS_P2;PMS_P1;PMS_P2;Temp;Humidity;BMP_temperature;BMP_pressure;BME280_temperature;BME280_humidity;BME280_pressure;Samples;Min_cycle;Max_cycle;Signal;HPM_P1;HPM_P2
2022/08/28 00:00:44;;;;;;;15.23;11.60;;;;;;;;;;4954948;28;20485;-53
2022/08/28 00:03:11;;;;;;;14.10;11.20;;;;;;;;;;4954223;28;20077;-54
2022/08/28 00:05:41;;;;;;;14.52;11.40;;;;;;;;;;4953706;28;20035;-57
2022/08/28 00:08:08;;;;;;;16.45;10.82;;;;;;;;;;4952650;28;20180;-56
2022/08/28 00:10:34;;;;;;;16.23;11.02;;;;;;;;;;4954696;28;20066;-56
2022/08/28 00:13:00;;;;;;;13.97;10.90;;;;;;;;;;4954540;28;20122;-55
2022/08/28 00:15:28;;;;;;;17.20;12.20;;;;;;;;;;4954434;28;20078;-56
2022/08/28 00:17:54;;;;;;;14.43;11.48;;;;;;;;;;4954408;28;20042;-52
2022/08/28 00:20:20;;;;;;;14.67;12.20;;;;;;;;;;4954504;28;20031;-56
2022/08/28 00:22:47;;;;;;;13.63;11.77;;;;;;;;;;4954608;28;20038;-56
2022/08/28 00:25:14;;;;;;;15.75;12.55;;;;;;;;;;4954331;28;20397;-55
2022/08/28 00:27:52;;;;;;;17.00;12.55;;;;;;;;;;4954775;28;20035;-55
2022/08/28 00:30:23;;;;;;;17.27;12.57;;;;;;;;;;4954102;28;20041;-58
2022/08/28 00:32:50;;;;;;;18.27;12.68;;;;;;;;;;4954252;28;20027;-57
2022/08/28 00:35:16;;;;;;;14.48;11.13;;;;;;;;;;4954176;28;20035;-58
2022/08/28 00:37:43;;;;;;;20.05;11.32;;;;;;;;;;4954153;28;20373;-55
2022/08/28 00:40:13;;;;;;;17.40;11.70;;;;;;;;;;4954145;28;20027;-54
2022/08/28 00:42:39;;;;;;;16.90;11.70;;;;;;;;;;4954299;28;20024;-56
2022/08/28 00:45:06;;;;;;;18.07;10.43;;;;;;;;;;4954161;28;20035;-57
2022/08/28 00:47:33;;;;;;;15.43;11.52;;;;;;;;;;4941851;29;20420;-58
2022/08/28 00:49:59;;;;;;;16.60;12.40;;;;;;;;;;4953833;28;20067;-56
2022/08/28 00:52:25;;;;;;;16.70;12.18;;;;;;;;;;4952674;28;20030;-54
2022/08/28 00:54:56;;;;;;;15.07;12.75;;;;;;;;;;4954256;28;20311;-57
2022/08/28 00:57:24;;;;;;;15.50;12.73;;;;;;;;;;4953915;28;20031;-57
2022/08/28 00:59:50;;;;;;;23.10;12.93;;;;;;;;;;4953514;28;20023;-57
2022/08/28 01:02:16;;;;;;;20.70;13.88;;;;;;;;;;4953745;28;20023;-56
2022/08/28 01:04:42;;;;;;;21.20;14.57;;;;;;;;;;4952955;28;20403;-56
2022/08/28 01:07:09;;;;;;;19.55;13.77;;;;;;;;;;4952652;28;20134;-58
2022/08/28 01:09:37;;;;;;;14.65;12.52;;;;;;;;;;4953148;28;20097;-56
2022/08/28 01:12:07;;;;;;;20.77;13.15;;;;;;;;;;4953082;28;20035;-54
2022/08/28 01:14:35;;;;;;;18.60;13.30;;;;;;;;;;4953195;28;20513;-57
2022/08/28 01:17:03;;;;;;;19.25;13.27;;;;;;;;;;4953319;28;20060;-58
2022/08/28 01:19:32;;;;;;;20.98;13.00;;;;;;;;;;4953583;28;20030;-59
2022/08/28 01:22:01;;;;;;;18.05;14.32;;;;;;;;;;4953420;28;20046;-56
2022/08/28 01:24:27;;;;;;;19.23;14.35;;;;;;;;;;4953530;28;20035;-57
2022/08/28 01:26:53;;;;;;;22.88;14.70;;;;;;;;;;4979939;23;20093;-55
2022/08/28 01:29:19;;;;;;;16.57;14.10;;;;;;;;;;4952424;28;20023;-59
2022/08/28 01:31:47;;;;;;;17.80;14.30;;;;;;;;;;4958273;28;20031;-59
2022/08/28 01:34:13;;;;;;;18.80;13.98;;;;;;;;;;4971295;28;20549;-57
2022/08/28 01:36:40;;;;;;;19.92;13.45;;;;;;;;;;4953909;28;20027;-58
2022/08/28 01:39:20;;;;;;;19.10;14.10;;;;;;;;;;4952379;28;20028;-59
2022/08/28 01:41:47;;;;;;;18.20;13.68;;;;;;;;;;4953174;28;20078;-59
2022/08/28 01:44:14;;;;;;;23.67;14.02;;;;;;;;;;4953398;28;20031;-57
2022/08/28 01:46:40;;;;;;;;;;;;;;;;;;4953566;28;20035;-60
2022/08/28 01:49:07;;;;;;;19.10;13.27;;;;;;;;;;4953566;28;19989;-59
2022/08/28 01:51:33;;;;;;;19.65;14.23;;;;;;;;;;4952940;29;20027;-56
2022/08/28 01:53:59;;;;;;;17.48;13.40;;;;;;;;;;4953448;28;20032;-59
2022/08/28 01:56:26;;;;;;;19.02;14.60;;;;;;;;;;4953094;28;20032;-58
2022/08/28 01:58:52;;;;;;;21.27;16.00;;;;;;;;;;4955841;28;20715;-57
2022/08/28 02:01:19;;;;;;;20.27;14.18;;;;;;;;;;4957047;28;20031;-59
2022/08/28 02:03:45;;;;;;;22.08;15.07;;;;;;;;;;4957217;28;20086;-60
2022/08/28 02:06:14;;;;;;;20.07;14.27;;;;;;;;;;4956849;28;20099;-57
2022/08/28 02:08:40;;;;;;;18.73;13.65;;;;;;;;;;4957623;28;20409;-58
2022/08/28 02:11:07;;;;;;;18.80;14.93;;;;;;;;;;4955759;28;20027;-59
2022/08/28 02:13:36;;;;;;;21.20;15.07;;;;;;;;;;4955518;28;20029;-58
2022/08/28 02:16:03;;;;;;;18.48;14.95;;;;;;;;;;4956622;28;20050;-59
2022/08/28 02:18:29;;;;;;;;;;;;;;;;;;4957405;28;20493;-56
2022/08/28 02:20:55;;;;;;;18.38;14.23;;;;;;;;;;4956422;28;19916;-56
2022/08/28 02:23:21;;;;;;;18.13;14.17;;;;;;;;;;4956937;28;20507;-58
2022/08/28 02:25:47;;;;;;;19.70;14.55;;;;;;;;;;4955882;28;20031;-58
2022/08/28 02:28:13;;;;;;;19.23;14.68;;;;;;;;;;4956687;28;20043;-58
2022/08/28 02:30:39;;;;;;;20.20;14.10;;;23.60;76.00;;;;;;4956747;28;20031;-58
2022/08/28 02:33:05;;;;;;;21.17;15.20;;;22.50;77.50;;;;;;4956857;28;20381;-58
2022/08/28 02:35:31;;;;;;;23.52;16.77;;;22.30;78.50;;;;;;4954869;28;20038;-57
2022/08/28 02:37:57;;;;;;;21.48;14.85;;;22.40;77.50;;;;;;4956628;29;20031;-59
2022/08/28 02:40:24;;;;;;;21.83;15.45;;;22.50;77.40;;;;;;4954886;28;20165;-57
2022/08/28 02:42:50;;;;;;;19.42;15.40;;;22.50;77.00;;;;;;4956285;28;20031;-56
2022/08/28 02:45:17;;;;;;;22.17;16.35;;;22.60;77.10;;;;;;4956221;29;20023;-58
2022/08/28 02:47:45;;;;;;;20.13;15.85;;;22.60;76.70;;;;;;4956525;28;20031;-57
2022/08/28 02:50:15;;;;;;;19.33;15.70;;;22.60;76.90;;;;;;4956091;28;20501;-56
2022/08/28 02:52:42;;;;;;;20.27;15.73;;;22.60;77.00;;;;;;4956105;28;20440;-58
2022/08/28 02:55:09;;;;;;;;;;;22.50;76.90;;;;;;4956152;28;20023;-59
2022/08/28 02:57:35;;;;;;;21.17;14.97;;;22.50;77.10;;;;;;4956017;28;19910;-57
2022/08/28 03:00:04;;;;;;;20.08;14.45;;;22.50;76.80;;;;;;4955856;28;20073;-57
2022/08/28 03:02:30;;;;;;;23.85;16.95;;;22.50;76.80;;;;;;4940620;29;20039;-59
2022/08/28 03:04:56;;;;;;;22.88;14.95;;;22.50;76.80;;;;;;4955849;29;20396;-58
2022/08/28 03:07:21;;;;;;;19.55;14.23;;;22.50;77.20;;;;;;4955710;29;20031;-58
2022/08/28 03:09:48;;;;;;;26.20;16.30;;;22.40;77.00;;;;;;4954939;28;20532;-60
2022/08/28 03:12:15;;;;;;;23.33;15.95;;;22.50;77.10;;;;;;4954555;29;20500;-60
2022/08/28 03:14:41;;;;;;;19.13;15.93;;;22.50;77.10;;;;;;4955791;28;20074;-59
2022/08/28 03:17:07;;;;;;;20.42;15.65;;;22.50;77.50;;;;;;4955662;28;20031;-57
2022/08/28 03:19:33;;;;;;;20.38;14.95;;;22.50;77.00;;;;;;4955751;29;20058;-58
2022/08/28 03:21:59;;;;;;;22.23;15.13;;;22.50;77.70;;;;;;4955674;28;20106;-55
2022/08/28 03:24:25;;;;;;;20.50;15.47;;;22.40;78.10;;;;;;4955382;28;20448;-56
2022/08/28 03:26:51;;;;;;;23.20;15.07;;;22.40;78.10;;;;;;4955310;28;20141;-57
2022/08/28 03:29:17;;;;;;;18.87;15.83;;;;;;;;;;4954545;29;20034;-57
2022/08/28 03:31:43;;;;;;;24.63;15.30;;;;;;;;;;4955171;28;20039;-58
2022/08/28 03:34:09;;;;;;;20.75;15.40;;;;;;;;;;4955459;28;20031;-57
2022/08/28 03:36:35;;;;;;;21.03;17.83;;;;;;;;;;4948957;28;20027;-57
2022/08/28 03:39:04;;;;;;;27.87;15.30;;;;;;;;;;4945382;29;20490;-57
2022/08/28 03:41:31;;;;;;;19.33;15.45;;;;;;;;;;4946899;28;20416;-56
2022/08/28 03:43:58;;;;;;;23.33;15.88;;;;;;;;;;4954389;29;20082;-57
2022/08/28 03:46:25;;;;;;;19.38;15.68;;;;;;;;;;4954779;28;20028;-57
2022/08/28 03:48:51;;;;;;;23.08;16.85;;;;;;;;;;4954828;28;20411;-57
2022/08/28 03:51:19;;;;;;;23.55;16.00;;;;;;;;;;4953888;28;20039;-56
2022/08/28 03:53:46;;;;;;;19.60;16.27;;;;;;;;;;4955065;28;20035;-55
2022/08/28 03:56:13;;;;;;;20.17;15.10;;;;;;;;;;4954920;28;20031;-57
2022/08/28 03:58:40;;;;;;;17.23;14.65;;;;;;;;;;4955206;28;20114;-54
2022/08/28 04:01:06;;;;;;;25.35;16.58;;;;;;;;;;4954339;28;20103;-55
2022/08/28 04:03:32;;;;;;;22.50;15.63;;;;;;;;;;4954804;28;20106;-58
2022/08/28 04:05:58;;;;;;;26.27;15.07;;;;;;;;;;4954591;28;20035;-56
2022/08/28 04:08:25;;;;;;;27.30;16.67;;;;;;;;;;4954888;28;20023;-57
2022/08/28 04:10:51;;;;;;;18.17;16.10;;;;;;;;;;4954468;28;20033;-56
2022/08/28 04:13:18;;;;;;;22.58;15.02;;;;;;;;;;4955063;28;20031;-56
2022/08/28 04:15:45;;;;;;;19.75;15.43;;;;;;;;;;4953463;28;20409;-54
2022/08/28 04:18:11;;;;;;;22.88;15.95;;;;;;;;;;4954675;28;20031;-58
2022/08/28 04:20:38;;;;;;;24.67;16.38;;;;;;;;;;4954016;28;20077;-60
2022/08/28 04:23:06;;;;;;;20.27;16.17;;;;;;;;;;4954611;28;20028;-58
2022/08/28 04:25:32;;;;;;;29.75;17.77;;;;;;;;;;4954758;28;20031;-56
2022/08/28 04:27:59;;;;;;;19.87;15.83;;;;;;;;;;4954632;28;20381;-54
2022/08/28 04:30:25;;;;;;;22.38;16.05;;;;;;;;;;4954118;28;20027;-55
2022/08/28 04:32:52;;;;;;;22.20;16.37;;;;;;;;;;4954158;28;20027;-57
2022/08/28 04:35:18;;;;;;;23.45;15.68;;;;;;;;;;4954138;28;20284;-56
2022/08/28 04:37:44;;;;;;;21.50;17.40;;;;;;;;;;4953180;28;20027;-56
2022/08/28 04:40:11;;;;;;;22.15;17.50;;;;;;;;;;4954230;28;20366;-58
2022/08/28 04:42:38;;;;;;;25.63;16.55;;;;;;;;;;4954285;28;20027;-58
2022/08/28 04:45:05;;;;;;;20.38;16.85;;;;;;;;;;4953844;28;20027;-55
2022/08/28 04:47:34;;;;;;;24.27;17.90;;;;;;;;;;4953920;29;20123;-52
2022/08/28 04:50:01;;;;;;;27.80;16.98;;;;;;;;;;4953974;28;20039;-57
2022/08/28 04:52:27;;;;;;;19.73;16.27;;;;;;;;;;4954156;28;20039;-57
2022/08/28 04:54:52;;;;;;;21.07;16.57;;;22.20;81.00;;;;;;4954054;28;20031;-57
2022/08/28 04:57:18;;;;;;;25.27;17.30;;;22.60;77.80;;;;;;4953745;28;20031;-58
2022/08/28 04:59:44;;;;;;;22.38;16.27;;;22.60;78.20;;;;;;4953596;29;20024;-57
2022/08/28 05:02:10;;;;;;;24.45;17.48;;;22.60;78.00;;;;;;4953767;28;20511;-59
2022/08/28 05:04:36;;;;;;;22.57;17.40;;;;;;;;;;4953406;28;20118;-56
2022/08/28 05:07:02;;;;;;;21.75;16.25;;;;;;;;;;4953558;28;20039;-57
2022/08/28 05:09:30;;;;;;;23.13;17.93;;;;;;;;;;4953889;28;20106;-56
2022/08/28 05:11:57;;;;;;;21.98;16.98;;;;;;;;;;4953913;28;20392;-57
2022/08/28 05:14:23;;;;;;;26.35;16.55;;;;;;;;;;4953575;28;20118;-56
2022/08/28 05:16:51;;;;;;;26.77;17.73;;;;;;;;;;4953702;28;20580;-58
2022/08/28 05:19:18;;;;;;;26.17;17.73;;;;;;;;;;4953598;28;20082;-57
2022/08/28 05:21:44;;;;;;;21.75;16.88;;;;;;;;;;4953247;28;20046;-57
2022/08/28 05:24:11;;;;;;;26.90;18.80;;;;;;;;;;4953716;28;20106;-57
2022/08/28 05:26:37;;;;;;;;;;;;;;;;;;4953731;28;20173;-55
2022/08/28 05:29:04;;;;;;;20.50;16.52;;;;;;;;;;4953355;28;20422;-59
2022/08/28 05:31:30;;;;;;;;;;;;;;;;;;4954045;28;20038;-51
2022/08/28 05:33:56;;;;;;;20.25;16.98;;;;;;;;;;4952413;28;19914;-56
2022/08/28 05:36:23;;;;;;;19.85;16.98;;;;;;;;;;4953560;28;20035;-65
2022/08/28 05:38:50;;;;;;;20.55;18.05;;;;;;;;;;4953890;28;20070;-57
2022/08/28 05:41:20;;;;;;;27.60;18.15;;;;;;;;;;4953179;28;20024;-58
2022/08/28 05:43:46;;;;;;;25.95;17.88;;;;;;;;;;4952000;28;20035;-58
2022/08/28 05:46:12;;;;;;;28.43;18.23;;;;;;;;;;4953448;28;20527;-58
2022/08/28 05:48:39;;;;;;;23.63;17.63;;;;;;;;;;4953130;28;20024;-56
2022/08/28 05:51:10;;;;;;;24.35;18.85;;;;;;;;;;4952995;28;20114;-56
2022/08/28 05:53:38;;;;;;;21.00;16.88;;;;;;;;;;4953533;28;20028;-55
2022/08/28 05:56:04;;;;;;;22.27;18.67;;;;;;;;;;4953103;28;20031;-54
2022/08/28 05:58:32;;;;;;;24.40;20.08;;;;;;;;;;4953381;28;20361;-55
2022/08/28 06:01:06;;;;;;;22.95;19.42;;;;;;;;;;4952861;28;20063;-57
2022/08/28 06:03:32;;;;;;;27.42;21.45;;;;;;;;;;4953165;28;20031;-56
2022/08/28 06:05:59;;;;;;;25.93;21.10;;;;;;;;;;4953193;28;20042;-57
2022/08/28 06:08:25;;;;;;;24.83;20.80;;;;;;;;;;4953112;28;20091;-57
2022/08/28 06:10:51;;;;;;;26.48;21.42;;;;;;;;;;4953130;28;20110;-56
2022/08/28 06:13:17;;;;;;;22.90;20.40;;;;;;;;;;4953364;28;20035;-57
2022/08/28 06:15:44;;;;;;;25.67;20.07;;;;;;;;;;4953187;28;20243;-56
2022/08/28 06:18:11;;;;;;;;;;;;;;;;;;4950367;28;20412;-57
2022/08/28 06:20:41;;;;;;;26.30;19.52;;;;;;;;;;4952049;29;19918;-59
2022/08/28 06:23:07;;;;;;;26.52;20.85;;;;;;;;;;4953082;28;20034;-55
2022/08/28 06:25:37;;;;;;;25.80;20.85;;;;;;;;;;4948042;28;20027;-59
2022/08/28 06:28:04;;;;;;;24.00;20.33;;;;;;;;;;4941091;29;20098;-58
2022/08/28 06:30:30;;;;;;;29.50;21.00;;;;;;;;;;4934000;29;20043;-55
2022/08/28 06:32:56;;;;;;;27.23;20.03;;;;;;;;;;4951668;29;20027;-54
2022/08/28 06:35:22;;;;;;;29.03;17.87;;;;;;;;;;4951865;28;20051;-58
2022/08/28 06:37:48;;;;;;;22.57;17.93;;;;;;;;;;4953533;28;20310;-57
2022/08/28 06:40:14;;;;;;;19.77;17.03;;;;;;;;;;4953000;28;20274;-57
2022/08/28 06:42:41;;;;;;;23.27;16.37;;;;;;;;;;4954171;28;20255;-54
2022/08/28 06:45:07;;;;;;;21.98;17.92;;;;;;;;;;4963683;28;20117;-56
2022/08/28 06:47:33;;;;;;;22.13;16.65;;;;;;;;;;4961167;28;20560;-56
2022/08/28 06:49:59;;;;;;;20.50;16.57;;;;;;;;;;4958094;28;20019;-56
2022/08/28 06:52:25;;;;;;;21.77;17.53;;;;;;;;;;4975700;28;20443;-56
2022/08/28 06:54:51;;;;;;;25.70;16.43;;;;;;;;;;4948434;28;20027;-55
2022/08/28 06:57:17;;;;;;;23.47;16.33;;;;;;;;;;4954670;28;20027;-55
2022/08/28 06:59:43;;;;;;;21.87;14.77;;;;;;;;;;4955560;28;20031;-58
2022/08/28 07:16:05;;;;;;;20.42;17.52;;;;;;;;;;5090916;27;20373;-53
2022/08/28 07:18:32;;;;;;;21.75;16.92;;;;;;;;;;5088763;28;20024;-53
2022/08/28 07:20:59;;;;;;;19.60;15.18;;;;;;;;;;5088350;28;20077;-52
2022/08/28 07:23:26;;;;;;;23.67;16.27;;;;;;;;;;5088838;28;20506;-53
2022/08/28 07:25:52;;;;;;;;;;;;;;;;;;5088666;28;20021;-51
2022/08/28 07:28:18;;;;;;;19.05;15.50;;;;;;;;;;5093491;23;19924;-54
2022/08/28 07:30:44;;;;;;;23.08;16.73;;;;;;;;;;5088134;28;20024;-55
2022/08/28 07:33:10;;;;;;;19.45;16.10;;;;;;;;;;5088391;28;20027;-53
2022/08/28 07:35:36;;;;;;;19.20;15.07;;;;;;;;;;5088181;28;20039;-53
2022/08/28 07:38:03;;;;;;;17.40;14.90;;;;;;;;;;5088419;28;20294;-53
2022/08/28 07:40:30;;;;;;;24.08;14.63;;;;;;;;;;5087212;28;20077;-55
2022/08/28 07:45:41;;;;;;;14.82;12.93;;;;;;;;;;5081369;28;20042;-54
2022/08/28 07:48:07;;;;;;;17.60;13.63;;;;;;;;;;5088299;28;20024;-55
2022/08/28 07:50:34;;;;;;;14.82;11.60;;;;;;;;;;5087061;28;20016;-55
2022/08/28 07:53:00;;;;;;;19.45;12.55;;;;;;;;;;5085461;28;20052;-54
2022/08/28 07:55:28;;;;;;;11.65;10.45;;;;;;;;;;5088061;28;20033;-54
2022/08/28 07:57:54;;;;;;;11.43;8.93;;;;;;;;;;5075973;28;20049;-55
2022/08/28 08:00:21;;;;;;;18.48;11.32;;;;;;;;;;5067920;28;20036;-53
2022/08/28 08:02:47;;;;;;;11.43;8.88;;;;;;;;;;5067791;28;20021;-56
2022/08/28 08:05:13;;;;;;;8.30;7.45;;;;;;;;;;5067523;28;20032;-56
2022/08/28 08:07:39;;;;;;;13.67;9.47;;;;;;;;;;5067979;28;20031;-56
2022/08/28 08:10:13;;;;;;;14.88;11.15;;;;;;;;;;5061715;28;20776;-55
2022/08/28 08:12:41;;;;;;;14.80;10.93;;;;;;;;;;5087968;28;20020;-55
2022/08/28 08:15:08;;;;;;;11.70;9.93;;;;;;;;;;5085127;28;20025;-55
2022/08/28 08:17:34;;;;;;;12.02;9.30;;;;;;;;;;5074333;28;20021;-58
2022/08/28 08:20:00;;;;;;;13.70;10.47;;;;;;;;;;5054560;28;20498;-57
2022/08/28 08:22:26;;;;;;;13.50;10.97;;;25.70;84.30;;;;;;5054689;28;20266;-57
2022/08/28 08:24:54;;;;;;;13.37;10.43;;;;;;;;;;5060022;28;20671;-57
2022/08/28 08:27:20;;;;;;;11.20;9.98;;;25.00;82.70;;;;;;5074079;28;20032;-57
2022/08/28 08:29:47;;;;;;;12.85;9.82;;;;;;;;;;5073054;28;20032;-58
2022/08/28 08:32:14;;;;;;;14.00;11.00;;;25.20;90.20;;;;;;5058977;28;20032;-58
2022/08/28 14:22:32;;;;;;;7.20;4.90;;;;;;;;;;5070869;27;20382;-58
2022/08/28 14:24:58;;;;;;;8.23;4.47;;;;;;;;;;5068301;28;20125;-58
2022/08/28 14:27:24;;;;;;;6.28;4.55;;;;;;;;;;5068585;28;20514;-58
2022/08/28 14:29:52;;;;;;;6.88;4.55;;;;;;;;;;5067872;28;20025;-60
2022/08/28 14:32:18;;;;;;;6.07;4.13;;;;;;;;;;5068133;28;20040;-58
2022/08/28 14:34:45;;;;;;;5.50;4.03;;;;;;;;;;5114165;22;20036;-63
2022/08/28 14:37:11;;;;;;;8.85;4.75;;;31.10;70.60;;;;;;5088545;28;20366;-63
2022/08/28 14:39:37;;;;;;;9.35;4.32;;;31.00;52.20;;;;;;5088540;28;20036;-63
2022/08/28 14:42:03;;;;;;;4.20;3.77;;;31.20;66.70;;;;;;5088533;28;20340;-63
2022/08/28 14:44:29;;;;;;;4.85;3.38;;;30.90;51.30;;;;;;5088589;28;20048;-63
2022/08/28 14:46:55;;;;;;;3.97;3.50;;;31.00;51.00;;;;;;5088651;28;20056;-63
2022/08/28 14:49:21;;;;;;;5.97;4.05;;;31.00;50.60;;;;;;5088506;28;20466;-63
2022/08/28 14:51:49;;;;;;;6.53;3.97;;;30.90;51.00;;;;;;5088268;28;20041;-63
2022/08/28 14:54:17;;;;;;;10.65;4.95;;;31.10;65.10;;;;;;5088146;28;20481;-63
2022/08/28 14:56:44;;;;;;;7.47;3.58;;;30.80;52.00;;;;;;5088364;28;20050;-63
2022/08/28 14:59:13;;;;;;;5.10;3.65;;;30.70;52.00;;;;;;5070406;28;20027;-63
2022/08/28 15:01:40;;;;;;;7.57;3.80;;;30.70;52.10;;;;;;5088116;28;20393;-63
2022/08/28 15:04:09;;;;;;;5.80;3.60;;;30.40;63.40;;;;;;5088144;28;20028;-63
2022/08/28 15:06:35;;;;;;;7.63;3.63;;;30.50;50.60;;;;;;5069873;28;20035;-63
2022/08/28 15:09:01;;;;;;;8.32;3.75;;;30.60;50.70;;;;;;5092067;28;20020;-63
2022/08/28 15:11:28;;;;;;;5.40;3.43;;;;;;;;;;5087310;28;20150;-63
2022/08/28 15:13:55;;;;;;;5.35;3.42;;;30.50;51.70;;;;;;5087932;28;20221;-63
2022/08/28 15:16:27;;;;;;;4.82;3.45;;;30.40;52.00;;;;;;5088238;28;20016;-63
2022/08/28 15:18:54;;;;;;;5.63;3.88;;;30.30;52.20;;;;;;5103052;28;20172;-63
2022/08/28 15:21:21;;;;;;;5.25;3.60;;;30.30;52.00;;;;;;5106669;28;20024;-63
2022/08/28 15:23:49;;;;;;;4.82;3.38;;;30.20;52.60;;;;;;5073572;28;20020;-63
2022/08/28 15:26:15;;;;;;;4.00;3.13;;;30.20;53.20;;;;;;5074468;28;20099;-63
2022/08/28 15:28:41;;;;;;;5.70;3.60;;;30.10;53.50;;;;;;5074246;28;20111;-63
2022/08/28 15:31:06;;;;;;;8.57;4.23;;;30.20;53.50;;;;;;5071413;28;20166;-63
2022/08/28 15:33:32;;;;;;;5.47;3.33;;;30.10;54.10;;;;;;5094517;28;20020;-63
2022/08/28 15:35:58;;;;;;;4.38;3.47;;;30.10;54.50;;;;;;5094145;28;20042;-63
2022/08/28 15:38:24;;;;;;;7.60;4.67;;;30.00;54.70;;;;;;5094621;28;20020;-63
2022/08/28 15:43:34;;;;;;;5.35;4.05;;;30.10;55.20;;;;;;5074375;28;20512;-63
2022/08/28 15:46:00;;;;;;;5.27;3.63;;;;;;;;;;5055826;28;20024;-63
2022/08/28 15:48:26;;;;;;;4.40;3.60;;;;;;;;;;5073486;28;20021;-63
2022/08/28 15:50:52;;;;;;;9.48;4.55;;;;;;;;;;5073631;28;20035;-63
2022/08/28 15:53:18;;;;;;;6.03;4.47;;;;;;;;;;5073536;28;20078;-63
2022/08/28 15:55:44;;;;;;;12.93;4.85;;;;;;;;;;5073415;28;20070;-63
2022/08/28 15:58:11;;;;;;;5.00;4.25;;;;;;;;;;5069610;28;20076;-63
2022/08/28 16:00:37;;;;;;;8.77;4.68;;;;;;;;;;5074130;28;20401;-63
2022/08/28 16:03:04;;;;;;;5.97;3.63;;;;;;;;;;5074406;28;20016;-63
2022/08/28 16:05:34;;;;;;;5.97;3.70;;;;;;;;;;5073024;28;20052;-63
2022/08/28 16:08:01;;;;;;;5.40;3.67;;;;;;;;;;5069840;28;20032;-63
2022/08/28 16:10:27;;;;;;;9.48;4.07;;;;;;;;;;5072727;28;20051;-63
2022/08/28 16:12:53;;;;;;;8.40;4.47;;;;;;;;;;5072317;28;20483;-63
2022/08/28 16:15:19;;;;;;;10.20;4.28;;;;;;;;;;5072649;28;20024;-63
2022/08/28 16:17:45;;;;;;;6.50;4.40;;;;;;;;;;5072928;28;20021;-63
2022/08/28 16:20:11;;;;;;;5.78;3.72;;;;;;;;;;5072730;28;20089;-63
2022/08/28 16:22:38;;;;;;;8.40;4.68;;;;;;;;;;5072536;28;20066;-63
2022/08/28 16:25:05;;;;;;;5.45;4.35;;;;;;;;;;5071545;28;20149;-63
2022/08/28 16:27:31;;;;;;;6.28;4.40;;;;;;;;;;5072708;28;20032;-63
2022/08/28 16:29:58;;;;;;;3.60;3.20;;;;;;;;;;5072415;28;20107;-63
2022/08/28 16:32:24;;;;;;;4.97;3.13;;;;;;;;;;5072616;28;20040;-63
2022/08/28 16:34:50;;;;;;;10.93;3.50;;;;;;;;;;5071559;28;20029;-63
2022/08/28 16:37:16;;;;;;;4.53;3.45;;;;;;;;;;5072346;28;20051;-63
2022/08/28 16:39:42;;;;;;;5.35;3.25;;;;;;;;;;5073043;28;20107;-63
2022/08/28 16:42:08;;;;;;;6.53;3.75;;;30.10;55.10;;;;;;5072102;28;20032;-63
2022/08/28 16:44:35;;;;;;;9.02;3.85;;;36.50;41.80;;;;;;5072698;28;20021;-63
2022/08/28 16:47:01;;;;;;;3.58;3.25;;;35.70;42.30;;;;;;5072756;28;20032;-63
2022/08/28 16:49:28;;;;;;;7.03;3.10;;;35.20;42.20;;;;;;5055033;28;20032;-63
2022/08/28 16:51:53;;;;;;;5.57;3.80;;;34.80;43.30;;;;;;5072385;28;20035;-63
2022/08/28 16:54:20;;;;;;;5.40;3.45;;;;;;;;;;5072600;28;20096;-62
2022/08/28 16:56:47;;;;;;;8.30;3.00;;;;;;;;;;5072574;28;20024;-63
2022/08/28 16:59:19;;;;;;;;;;;34.40;43.70;;;;;;5072860;28;20016;-62
2022/08/28 17:01:45;;;;;;;6.75;3.00;;;33.50;45.60;;;;;;5072311;28;19904;-62
2022/08/28 17:04:11;;;;;;;5.85;3.47;;;32.70;57.90;;;;;;5072372;28;20020;-63
2022/08/28 17:06:37;;;;;;;8.38;3.63;;;33.00;45.60;;;;;;5072732;28;20108;-62
2022/08/28 17:09:03;;;;;;;4.65;2.83;;;;;;;;;;5072321;28;20025;-63
2022/08/28 17:11:29;;;;;;;5.72;3.40;;;;;;;;;;5054207;28;20021;-63
2022/08/28 17:13:55;;;;;;;;;;;;;;;;;;5054712;28;20028;-62
2022/08/28 17:16:24;;;;;;;6.60;3.50;;;;;;;;;;5072109;28;19949;-62
2022/08/28 17:18:50;;;;;;;6.53;3.25;;;;;;;;;;5072236;28;20017;-62
2022/08/28 17:24:00;;;;;;;6.10;3.15;;;;;;;;;;5072036;28;20448;-62
2022/08/28 17:26:26;;;;;;;5.85;3.08;;;31.50;48.90;;;;;;5054142;28;20028;-62
2022/08/28 17:28:51;;;;;;;5.50;3.40;;;31.40;50.50;;;;;;5070929;28;20028;-62
2022/08/28 17:31:18;;;;;;;7.07;2.90;;;31.30;50.10;;;;;;5052124;28;20021;-63
2022/08/28 17:33:44;;;;;;;6.05;3.53;;;31.20;51.20;;;;;;5051531;28;20270;-63
2022/08/28 17:36:12;;;;;;;3.75;3.25;;;31.00;50.90;;;;;;5071231;28;20024;-62
2022/08/28 17:38:39;;;;;;;4.05;3.38;;;30.80;51.10;;;;;;5071308;28;20146;-62
2022/08/28 17:41:05;;;;;;;6.90;3.45;;;;;;;;;;5071544;28;20035;-62
2022/08/28 17:43:32;;;;;;;4.20;3.25;;;30.80;51.80;;;;;;5071484;28;20368;-62
2022/08/28 17:45:58;;;;;;;4.03;3.47;;;30.50;53.20;;;;;;5072153;28;20100;-62
2022/08/28 17:48:24;;;;;;;4.10;3.07;;;30.40;53.60;;;;;;5071836;28;20526;-62
2022/08/28 17:50:50;;;;;;;6.97;3.30;;;30.30;53.70;;;;;;5053497;28;20029;-63
2022/08/28 17:53:16;;;;;;;13.05;4.03;;;30.20;54.40;;;;;;5070992;28;20529;-62
2022/08/28 17:55:42;;;;;;;6.53;4.10;;;30.10;54.90;;;;;;5069338;28;20402;-63
2022/08/28 17:58:08;;;;;;;6.30;4.40;;;29.90;55.60;;;;;;5070495;28;20031;-62
2022/08/28 18:00:34;;;;;;;5.53;3.70;;;29.80;56.80;;;;;;5071328;28;20031;-62
2022/08/28 18:03:00;;;;;;;6.00;4.03;;;29.70;57.10;;;;;;5070250;28;20290;-62
2022/08/28 18:05:26;;;;;;;4.68;4.28;;;29.60;57.40;;;;;;5071165;28;20398;-62
2022/08/28 18:07:52;;;;;;;9.15;4.93;;;29.30;57.40;;;;;;5070522;28;20035;-62
2022/08/28 18:10:18;;;;;;;5.50;4.65;;;29.20;57.70;;;;;;5054190;28;20035;-62
2022/08/28 18:12:45;;;;;;;5.93;4.30;;;29.10;58.10;;;;;;5071611;28;20453;-62
2022/08/28 18:15:12;;;;;;;6.53;4.40;;;29.00;58.20;;;;;;5071411;28;20028;-62
2022/08/28 18:17:39;;;;;;;6.13;4.95;;;29.00;58.70;;;;;;5071433;28;20078;-62
2022/08/28 18:20:08;;;;;;;7.57;5.53;;;28.90;58.70;;;;;;5071421;28;20020;-62
2022/08/28 18:22:33;;;;;;;7.85;5.97;;;28.80;59.40;;;;;;5070913;28;20025;-62
2022/08/28 18:25:02;;;;;;;12.57;6.63;;;28.70;59.80;;;;;;5071645;28;20074;-62
2022/08/28 18:27:30;;;;;;;7.28;6.57;;;28.60;59.80;;;;;;5053046;28;20569;-62
2022/08/28 18:29:57;;;;;;;7.85;7.10;;;28.60;60.30;;;;;;5052936;28;20040;-62
2022/08/28 18:32:24;;;;;;;8.95;7.13;;;28.50;60.00;;;;;;5052272;28;20029;-62
2022/08/28 18:34:50;;;;;;;7.90;7.20;;;28.40;60.60;;;;;;5070373;28;20073;-63
2022/08/28 18:37:17;;;;;;;9.60;7.13;;;28.30;60.60;;;;;;5071086;28;20031;-62
2022/08/28 18:39:44;;;;;;;7.82;6.97;;;28.20;61.00;;;;;;5071132;28;20552;-62
2022/08/28 18:42:10;;;;;;;10.77;7.38;;;28.20;61.00;;;;;;5052961;28;20490;-63
2022/08/28 18:44:36;;;;;;;9.50;7.90;;;28.20;61.20;;;;;;5070171;28;20513;-62
2022/08/28 18:47:02;;;;;;;7.75;6.97;;;28.20;61.40;;;;;;5070764;28;20145;-62
2022/08/28 18:49:28;;;;;;;7.22;6.53;;;28.10;62.20;;;;;;5070735;28;20107;-62
2022/08/28 18:51:54;;;;;;;8.20;6.53;;;28.00;62.00;;;;;;5070808;28;20099;-62
2022/08/28 18:54:21;;;;;;;7.80;7.00;;;28.00;62.40;;;;;;5052793;28;20506;-62
2022/08/28 18:57:17;;;;;;;8.65;7.43;;;28.00;61.90;;;;;;5071548;28;20024;-62
2022/08/28 18:59:43;;;;;;;9.43;6.63;;;27.90;61.90;;;;;;5055843;28;20083;-62
2022/08/28 19:02:09;;;;;;;9.50;7.28;;;27.90;62.60;;;;;;5073230;28;20103;-62
2022/08/28 19:04:35;;;;;;;14.20;7.68;;;27.80;62.70;;;;;;5074598;28;20502;-62
2022/08/28 19:07:01;;;;;;;12.57;7.10;;;27.80;63.00;;;;;;5081828;28;20024;-62
2022/08/28 19:09:27;;;;;;;8.67;6.80;;;27.90;63.10;;;;;;5094938;28;20390;-61
2022/08/28 19:11:53;;;;;;;12.23;8.07;;;27.80;63.60;;;;;;5087122;28;20479;-62
2022/08/28 19:14:20;;;;;;;9.23;7.45;;;27.70;62.90;;;;;;5084369;28;20032;-62
2022/08/28 19:16:45;;;;;;;7.57;6.77;;;27.70;63.30;;;;;;5094094;28;20371;-62
2022/08/28 19:19:11;;;;;;;9.17;7.03;;;27.60;63.40;;;;;;5086540;28;20024;-62
2022/08/28 19:21:37;;;;;;;8.90;7.18;;;27.60;63.60;;;;;;5067208;28;20024;-62
2022/08/28 19:24:03;;;;;;;9.70;6.67;;;27.50;75.40;;;;;;5094553;28;20028;-62
2022/08/28 19:26:29;;;;;;;9.65;6.53;;;27.50;64.00;;;;;;5076605;28;20494;-62
2022/08/28 19:28:56;;;;;;;8.65;6.22;;;27.50;64.20;;;;;;5074427;28;20032;-62
2022/08/28 19:31:26;;;;;;;8.98;6.88;;;27.40;64.40;;;;;;5073822;28;20032;-62
2022/08/28 19:33:52;;;;;;;9.75;7.00;;;27.40;64.50;;;;;;5074191;28;20028;-62
2022/08/28 19:36:18;;;;;;;8.25;6.55;;;27.40;64.50;;;;;;5073712;28;20410;-62
2022/08/28 19:38:44;;;;;;;7.20;6.53;;;27.40;64.60;;;;;;5073909;28;20153;-63
2022/08/28 19:41:12;;;;;;;10.07;6.63;;;27.40;64.90;;;;;;5055550;28;20512;-62
2022/08/28 19:43:38;;;;;;;9.65;7.25;;;27.30;64.80;;;;;;5073815;28;20024;-62
2022/08/28 19:46:08;;;;;;;9.23;6.68;;;27.30;65.40;;;;;;5071994;28;20095;-62
2022/08/28 19:48:35;;;;;;;9.68;8.25;;;27.20;65.50;;;;;;5073506;28;20036;-62
2022/08/28 19:51:06;;;;;;;12.18;7.72;;;27.20;65.30;;;;;;5064991;28;20032;-62